createdAt,value
2023-02-15T00:01:21.884Z,96138.81
2023-02-15T00:03:53.667Z,96145.22
2023-02-15T00:06:20.396Z,96156.41
2023-02-15T00:08:49.282Z,96151.13
2023-02-15T00:11:17.396Z,96154.41
2023-02-15T00:13:46.216Z,96156.03
2023-02-15T00:16:13.653Z,96157.66
2023-02-15T00:18:41.119Z,96159.34
2023-02-15T00:21:09.776Z,96166.25
2023-02-15T00:23:39.311Z,96157.88
2023-02-15T00:26:12.791Z,96168.22
2023-02-15T00:28:39.761Z,96161.31
2023-02-15T00:31:13.175Z,96166.25
2023-02-15T00:33:40.199Z,96161.97
2023-02-15T00:36:08.228Z,96164.63
2023-02-15T00:38:34.975Z,96169.91
2023-02-15T00:41:05.304Z,96169.06
2023-02-15T00:43:34.597Z,96166.59
2023-02-15T00:46:04.289Z,96176.97
2023-02-15T00:48:31.132Z,96171.53
2023-02-15T00:50:59.218Z,96171.53
2023-02-15T00:53:31.139Z,96160.97
2023-02-15T00:55:58.337Z,96166.69
2023-02-15T00:58:25.269Z,96166.69
2023-02-15T01:00:52.151Z,96168.53
2023-02-15T01:03:19.362Z,96163.88
2023-02-15T01:05:46.103Z,96160.06
2023-02-15T01:08:15.659Z,96163.03
2023-02-15T01:10:44.970Z,96157.97
2023-02-15T01:13:16.414Z,96155.31
2023-02-15T01:15:48.824Z,96161.25
2023-02-15T01:18:15.504Z,96156.22
2023-02-15T01:20:42.588Z,96155.41
2023-02-15T01:23:14.482Z,96152.16
2023-02-15T01:25:43.475Z,96156.22
2023-02-15T01:28:12.424Z,96151.78
2023-02-15T01:30:39.176Z,96137.13
2023-02-15T01:33:05.846Z,96152.56
2023-02-15T01:35:32.617Z,96148.13
2023-02-15T01:38:01.991Z,96136.75
2023-02-15T01:40:33.422Z,96135.31
2023-02-15T01:43:00.086Z,96135.09
2023-02-15T01:45:33.596Z,96137.75
2023-02-15T01:48:07.922Z,96142.03
2023-02-15T01:50:41.384Z,96135.09
2023-02-15T01:53:17.770Z,96137.75
2023-02-15T01:55:51.262Z,96131.47
2023-02-15T01:58:18.020Z,96130.66
2023-02-15T02:00:44.806Z,96132.47
2023-02-15T02:03:13.566Z,96135.09
2023-02-15T02:05:42.395Z,96131.13
2023-02-15T02:08:13.802Z,96132.28
2023-02-15T02:10:40.519Z,96120.91
2023-02-15T02:13:10.369Z,96127.84
2023-02-15T02:15:53.371Z,96127.84
2023-02-15T02:18:45.869Z,96127.84
2023-02-15T02:21:30.866Z,96132.75
2023-02-15T02:24:12.472Z,96149.59
2023-02-15T02:27:02.740Z,96147.50
2023-02-15T02:29:55.607Z,96148.50
2023-02-15T02:32:33.292Z,96144.84
2023-02-15T02:35:08.883Z,96147.97
2023-02-15T02:38:06.908Z,96146.97
2023-02-15T02:40:53.778Z,96149.41
2023-02-15T02:43:42.717Z,96146.59
2023-02-15T02:46:21.582Z,96144.94
2023-02-15T02:48:51.566Z,96143.94
2023-02-15T02:51:22.430Z,96146.59
2023-02-15T02:53:53.743Z,96144.94
2023-02-15T02:56:32.477Z,96147.59
2023-02-15T02:59:06.620Z,96151.88
2023-02-15T03:01:41.270Z,96148.22
2023-02-15T03:04:15.214Z,96153.88
2023-02-15T03:06:48.177Z,96153.88
2023-02-15T03:09:44.122Z,96165.22
2023-02-15T03:12:18.520Z,96161.78
2023-02-15T03:14:46.143Z,96169.06
2023-02-15T03:17:17.687Z,96167.44
2023-02-15T03:19:46.757Z,96168.88
2023-02-15T03:22:21.114Z,96166.06
2023-02-15T03:25:18.629Z,96166.69
2023-02-15T03:27:52.144Z,96166.88
2023-02-15T03:30:21.717Z,96164.06
2023-02-15T03:32:48.841Z,96159.16
2023-02-15T03:35:20.223Z,96163.06
2023-02-15T03:37:49.501Z,96157.94
2023-02-15T03:40:37.979Z,96154.69
2023-02-15T03:43:28.694Z,96163.97
2023-02-15T03:46:00.670Z,96158.69
2023-02-15T03:48:43.765Z,96164.81
2023-02-15T03:51:31.901Z,96154.25
2023-02-15T03:53:58.536Z,96160.78
2023-02-15T03:56:25.499Z,96163.22
2023-02-15T03:59:13.229Z,96167.69
2023-02-15T04:02:00.131Z,96158.16
2023-02-15T04:04:32.822Z,96165.69
2023-02-15T04:07:02.152Z,96160.41
2023-02-15T04:09:47.743Z,96164.06
2023-02-15T04:12:14.480Z,96178.25
2023-02-15T04:14:59.953Z,96177.91
2023-02-15T04:17:26.706Z,96183.53
2023-02-15T04:20:11.928Z,96185.56
2023-02-15T04:22:57.178Z,96186.81
2023-02-15T04:25:23.918Z,96190.47
2023-02-15T04:27:52.281Z,96192.47
2023-02-15T04:30:24.735Z,96205.66
2023-02-15T04:32:52.097Z,96206.66
2023-02-15T04:35:18.936Z,96197.75
2023-02-15T04:37:50.327Z,96213.59
2023-02-15T04:40:19.352Z,96213.59
2023-02-15T04:42:51.299Z,96214.38
2023-02-15T04:45:18.186Z,96211.59
2023-02-15T04:47:44.995Z,96205.28
2023-02-15T04:50:11.911Z,96199.38
2023-02-15T04:52:38.570Z,96205.13
2023-02-15T04:55:05.515Z,96209.22
2023-02-15T04:57:34.354Z,96214.38
2023-02-15T05:00:03.489Z,96210.66
2023-02-15T05:02:30.152Z,96221.41
2023-02-15T05:04:56.866Z,96224.84
2023-02-15T05:07:25.636Z,96226.47
2023-02-15T05:09:52.216Z,96224.50
2023-02-15T05:12:21.039Z,96222.50
2023-02-15T05:14:50.046Z,96233.06
2023-02-15T05:17:19.765Z,96229.59
2023-02-15T05:19:48.624Z,96227.16
2023-02-15T05:22:17.599Z,96233.06
2023-02-15T05:25:05.390Z,96237.34
2023-02-15T05:27:50.609Z,96240.78
2023-02-15T05:30:22.036Z,96243.25
2023-02-15T05:32:50.968Z,96243.25
2023-02-15T05:35:19.779Z,96243.25
2023-02-15T05:37:46.561Z,96257.47
2023-02-15T05:40:15.866Z,96252.19
2023-02-15T05:42:44.639Z,96255.81
2023-02-15T05:45:14.074Z,96245.25
2023-02-15T05:47:43.569Z,96245.25
2023-02-15T05:50:13.496Z,96245.91
2023-02-15T05:52:40.157Z,96255.81
2023-02-15T05:55:10.152Z,96252.97
2023-02-15T05:57:39.658Z,96257.47
2023-02-15T06:00:06.956Z,96250.53
2023-02-15T06:02:42.442Z,96247.28
2023-02-15T06:05:09.248Z,96255.81
2023-02-15T06:07:38.101Z,96259.09
2023-02-15T06:10:05.617Z,96260.09
2023-02-15T06:12:32.305Z,96256.81
2023-02-15T06:15:01.902Z,96256.00
2023-02-15T06:17:30.856Z,96254.56
2023-02-15T06:19:59.688Z,96259.00
2023-02-15T06:22:28.681Z,96263.09
2023-02-15T06:24:55.376Z,96264.75
2023-02-15T06:27:22.070Z,96268.03
2023-02-15T06:29:48.709Z,96268.03
2023-02-15T06:32:17.574Z,96262.75
2023-02-15T06:34:48.498Z,96263.53
2023-02-15T06:37:17.613Z,96264.56
2023-02-15T06:39:45.193Z,96260.75
2023-02-15T06:42:14.279Z,96263.22
2023-02-15T06:44:43.719Z,96252.66
2023-02-15T06:47:12.504Z,96274.56
2023-02-15T06:49:41.247Z,96268.03
2023-02-15T06:52:07.933Z,96266.38
2023-02-15T06:54:36.681Z,96273.63
2023-02-15T06:57:05.692Z,96263.75
2023-02-15T06:59:32.438Z,96260.16
2023-02-15T07:02:01.348Z,96258.94
2023-02-15T07:04:29.802Z,96255.22
2023-02-15T07:06:56.623Z,96258.78
2023-02-15T07:09:26.057Z,96259.56
2023-02-15T07:12:13.705Z,96262.78
2023-02-15T07:14:41.640Z,96255.63
2023-02-15T07:17:35.151Z,96254.50
2023-02-15T07:20:02.663Z,96259.16
2023-02-15T07:22:29.321Z,96261.34
2023-02-15T07:24:58.109Z,96282.06
2023-02-15T07:27:29.415Z,96268.19
2023-02-15T07:29:55.925Z,96268.44
2023-02-15T07:32:22.697Z,96266.28
2023-02-15T07:34:49.349Z,96272.03
2023-02-15T07:37:21.231Z,96257.94
2023-02-15T07:39:47.871Z,96259.03
2023-02-15T07:42:17.339Z,96257.75
2023-02-15T07:44:46.279Z,96252.75
2023-02-15T07:47:13.205Z,96244.72
2023-02-15T07:49:41.972Z,96243.16
2023-02-15T07:52:10.880Z,96247.81
2023-02-15T07:54:39.867Z,96246.19
2023-02-15T07:57:09.570Z,96252.22
2023-02-15T07:59:36.224Z,96246.91
2023-02-15T08:02:03.019Z,96248.81
2023-02-15T08:04:29.749Z,96259.00
2023-02-15T08:06:58.979Z,96258.19
2023-02-15T08:09:27.982Z,96254.94
2023-02-15T08:11:57.597Z,96248.34
2023-02-15T08:14:26.349Z,96259.00
2023-02-15T08:16:56.881Z,96257.25
2023-02-15T08:19:24.631Z,96250.44
2023-02-15T08:21:58.476Z,96255.94
2023-02-15T08:24:26.676Z,96253.63
2023-02-15T08:26:55.455Z,96264.38
2023-02-15T08:29:23.673Z,96264.13
2023-02-15T08:31:51.173Z,96264.31
2023-02-15T08:34:19.012Z,96262.50
2023-02-15T08:36:48.319Z,96262.28
2023-02-15T08:39:17.676Z,96264.56
2023-02-15T08:41:47.054Z,96259.25
2023-02-15T08:44:18.584Z,96270.50
2023-02-15T08:46:49.611Z,96254.97
2023-02-15T08:49:19.432Z,96262.56
2023-02-15T08:51:49.544Z,96259.72
2023-02-15T08:54:19.880Z,96263.81
2023-02-15T08:56:49.998Z,96263.81
2023-02-15T08:59:22.719Z,96272.38
2023-02-15T09:01:58.881Z,96272.38
2023-02-15T09:04:31.476Z,96258.91
2023-02-15T09:07:01.300Z,96264.19
2023-02-15T09:09:33.994Z,96275.81
2023-02-15T09:12:09.776Z,96269.75
2023-02-15T09:15:15.628Z,96269.38
2023-02-15T09:17:47.028Z,96264.94
2023-02-15T09:20:16.060Z,96259.28
2023-02-15T09:22:42.652Z,96266.81
2023-02-15T09:25:11.604Z,96264.81
2023-02-15T09:27:40.785Z,96261.53
2023-02-15T09:30:10.186Z,96260.53
2023-02-15T09:32:39.329Z,96258.72
2023-02-15T09:35:08.671Z,96271.22
2023-02-15T09:37:39.937Z,96269.03
2023-02-15T09:40:07.062Z,96276.69
2023-02-15T09:42:39.563Z,96274.19
2023-02-15T09:45:34.491Z,96265.25
2023-02-15T09:48:28.770Z,96263.44
2023-02-15T09:51:20.436Z,96245.28
2023-02-15T09:54:01.977Z,96267.72
2023-02-15T09:56:44.436Z,96263.44
2023-02-15T09:59:32.465Z,96263.50
2023-02-15T10:01:58.996Z,96254.72
2023-02-15T10:04:53.399Z,96257.84
2023-02-15T10:07:56.993Z,96265.94
2023-02-15T10:10:35.585Z,96253.06
2023-02-15T10:13:21.900Z,96255.09
2023-02-15T10:16:30.349Z,96253.63
2023-02-15T10:19:34.344Z,96248.97
2023-02-15T10:22:19.690Z,96248.22
2023-02-15T10:25:13.011Z,96253.94
2023-02-15T10:27:49.922Z,96245.56
2023-02-15T10:30:21.589Z,96236.00
2023-02-15T10:33:05.326Z,96237.50
2023-02-15T10:35:42.203Z,96242.56
2023-02-15T10:38:08.798Z,96242.56
2023-02-15T10:41:00.859Z,96235.22
2023-02-15T10:43:58.264Z,96231.16
2023-02-15T10:46:48.118Z,96225.03
2023-02-15T10:49:20.652Z,96222.63
2023-02-15T10:51:50.338Z,96224.28
2023-02-15T10:54:34.981Z,96229.41
2023-02-15T10:57:07.105Z,96219.00
2023-02-15T11:00:00.838Z,96216.19
2023-02-15T11:03:01.460Z,96211.34
2023-02-15T11:05:44.556Z,96214.16
2023-02-15T11:08:14.466Z,96216.59
2023-02-15T11:10:52.634Z,96213.34
2023-02-15T11:13:24.372Z,96209.25
2023-02-15T11:15:58.468Z,96214.94
2023-02-15T11:18:28.868Z,96210.06
2023-02-15T11:21:15.653Z,96220.25
2023-02-15T11:23:45.702Z,96213.31
2023-02-15T11:26:18.450Z,96216.38
2023-02-15T11:28:51.671Z,96200.25
2023-02-15T11:31:23.457Z,96200.31
2023-02-15T11:34:05.057Z,96203.97
2023-02-15T11:36:37.458Z,96195.50
2023-02-15T11:39:12.287Z,96207.34
2023-02-15T11:41:42.356Z,96193.22
2023-02-15T11:44:32.732Z,96196.63
2023-02-15T11:46:59.998Z,96192.91
2023-02-15T11:49:34.085Z,96178.41
2023-02-15T11:52:07.661Z,96176.59
2023-02-15T11:54:39.086Z,96178.81
2023-02-15T11:57:36.634Z,96176.38
2023-02-15T12:00:12.430Z,96153.03
2023-02-15T12:02:44.356Z,96167.75
2023-02-15T12:05:14.846Z,96161.22
2023-02-15T12:07:49.786Z,96160.59
2023-02-15T12:10:30.269Z,96159.34
2023-02-15T12:13:13.257Z,96153.44
2023-02-15T12:15:47.755Z,96149.91
2023-02-15T12:18:36.249Z,96154.81
2023-02-15T12:21:11.342Z,96152.38
2023-02-15T12:23:47.999Z,96154.59
2023-02-15T12:26:14.690Z,96149.16
2023-02-15T12:28:47.160Z,96142.66
2023-02-15T12:31:28.185Z,96149.03
2023-02-15T12:33:59.119Z,96143.34
2023-02-15T12:36:30.341Z,96136.84
2023-02-15T12:39:15.662Z,96145.22
2023-02-15T12:41:45.990Z,96135.63
2023-02-15T12:44:24.339Z,96118.94
2023-02-15T12:46:57.774Z,96123.03
2023-02-15T12:49:29.334Z,96115.69
2023-02-15T12:51:59.777Z,96116.72
2023-02-15T12:54:36.651Z,96110.03
2023-02-15T12:57:15.339Z,96101.91
2023-02-15T12:59:53.844Z,96109.25
2023-02-15T13:02:31.090Z,96110.91
2023-02-15T13:04:57.916Z,96115.38
2023-02-15T13:07:25.626Z,96111.50
2023-02-15T13:23:31.187Z,96095.03
2023-02-15T13:25:59.623Z,96100.50
2023-02-15T13:28:31.229Z,96101.50
2023-02-15T13:30:57.984Z,96105.63
2023-02-15T13:33:37.577Z,96093.56
2023-02-15T13:36:24.779Z,96099.91
2023-02-15T13:39:11.775Z,96086.44
2023-02-15T13:41:38.395Z,96097.25
2023-02-15T13:44:21.293Z,96099.50
2023-02-15T13:47:07.928Z,96094.59
2023-02-15T13:49:50.796Z,96108.25
2023-02-15T13:52:25.799Z,96113.75
2023-02-15T13:54:58.235Z,96113.53
2023-02-15T13:57:34.015Z,96114.59
2023-02-15T14:00:22.725Z,96107.84
2023-02-15T14:03:06.007Z,96110.41
2023-02-15T14:05:54.324Z,96114.47
2023-02-15T14:08:41.773Z,96126.56
2023-02-15T14:11:10.258Z,96124.34
2023-02-15T14:13:46.244Z,96125.56
2023-02-15T14:16:22.403Z,96127.56
2023-02-15T14:19:05.580Z,96129.53
2023-02-15T14:21:33.562Z,96135.66
2023-02-15T14:24:19.193Z,96149.91
2023-02-15T14:26:53.968Z,96144.59
2023-02-15T14:29:42.467Z,96133.22
2023-02-15T14:32:22.099Z,96135.66
2023-02-15T14:34:57.372Z,96139.69
2023-02-15T14:37:56.118Z,96146.88
2023-02-15T14:40:56.641Z,96137.06
2023-02-15T14:43:53.105Z,96136.88
2023-02-15T14:46:22.714Z,96139.31
2023-02-15T14:48:50.678Z,96136.41
2023-02-15T14:51:46.479Z,96140.00
2023-02-15T14:54:22.106Z,96142.91
2023-02-15T14:57:03.976Z,96141.22
2023-02-15T14:59:33.592Z,96149.31
2023-02-15T15:02:10.415Z,96128.66
2023-02-15T15:04:52.614Z,96142.78
2023-02-15T15:07:26.951Z,96139.88
2023-02-15T15:10:16.774Z,96145.97
2023-02-15T15:12:50.354Z,96139.41
2023-02-15T15:15:30.698Z,96139.00
2023-02-15T15:18:10.812Z,96143.84
2023-02-15T15:20:51.829Z,96146.25
2023-02-15T15:23:22.024Z,96145.41
2023-02-15T15:26:22.356Z,96151.88
2023-02-15T15:28:48.873Z,96151.66
2023-02-15T15:31:32.696Z,96159.59
2023-02-15T15:34:17.599Z,96160.78
2023-02-15T15:37:02.522Z,96161.13
2023-02-15T15:40:03.340Z,96164.16
2023-02-15T15:42:37.125Z,96165.56
2023-02-15T15:45:12.891Z,96161.00
2023-02-15T15:48:06.372Z,96166.31
2023-02-15T15:50:33.960Z,96165.06
2023-02-15T15:53:01.385Z,96170.72
2023-02-15T15:55:29.472Z,96160.50
2023-02-15T15:58:06.568Z,96171.09
2023-02-15T16:00:41.716Z,96168.22
2023-02-15T16:03:22.080Z,96169.66
2023-02-15T16:05:53.983Z,96163.94
2023-02-15T16:08:35.303Z,96164.50
2023-02-15T16:11:08.671Z,96166.97
2023-02-15T16:13:35.294Z,96165.31
2023-02-15T16:16:02.241Z,96168.97
2023-02-15T16:18:31.710Z,96181.19
2023-02-15T16:21:00.112Z,96176.69
2023-02-15T16:23:35.999Z,96170.16
2023-02-15T16:26:02.958Z,96176.63
2023-02-15T16:28:29.960Z,96183.56
2023-02-15T16:31:07.214Z,96179.50
2023-02-15T16:33:41.331Z,96187.22
2023-02-15T16:36:21.005Z,96182.94
2023-02-15T16:38:47.633Z,96184.56
2023-02-15T16:41:17.494Z,96184.31
2023-02-15T16:43:45.626Z,96191.44
2023-02-15T16:46:13.411Z,96194.91
2023-02-15T16:48:44.477Z,96185.34
2023-02-15T16:51:11.185Z,96187.59
2023-02-15T16:53:37.890Z,96190.41
2023-02-15T16:56:05.881Z,96191.25
2023-02-15T16:58:48.656Z,96185.34
2023-02-15T17:01:16.124Z,96187.97
2023-02-15T17:03:48.174Z,96176.56
2023-02-15T17:06:22.763Z,96181.06
2023-02-15T17:08:52.884Z,96183.06
2023-02-15T17:11:23.598Z,96177.97
2023-02-15T17:14:05.771Z,96180.44
2023-02-15T17:16:35.176Z,96173.69
2023-02-15T17:19:02.810Z,96178.53
2023-02-15T17:21:33.088Z,96171.59
2023-02-15T17:24:01.407Z,96175.25
2023-02-15T17:26:31.596Z,96170.97
2023-02-15T17:29:02.235Z,96177.25
2023-02-15T17:31:33.245Z,96172.34
2023-02-15T17:34:00.970Z,96170.72
2023-02-15T17:36:30.344Z,96178.66
2023-02-15T17:39:03.337Z,96179.63
2023-02-15T17:41:33.673Z,96180.63
2023-02-15T17:44:02.572Z,96180.00
2023-02-15T17:46:32.985Z,96184.50
2023-02-15T17:48:59.732Z,96186.31
2023-02-15T17:51:26.418Z,96183.88
2023-02-15T17:54:11.476Z,96192.78
2023-02-15T17:56:38.710Z,96190.13
2023-02-15T17:59:08.188Z,96192.13
2023-02-15T18:02:04.360Z,96183.38
2023-02-15T18:04:50.899Z,96193.31
2023-02-15T18:07:41.770Z,96179.19
2023-02-15T18:10:40.461Z,96190.84
2023-02-15T18:13:07.183Z,96184.75
2023-02-15T18:15:33.873Z,96195.31
2023-02-15T18:18:02.691Z,96193.50
2023-02-15T18:20:34.926Z,96197.78
2023-02-15T18:23:02.295Z,96186.75
2023-02-15T18:25:28.931Z,96190.41
2023-02-15T18:27:55.647Z,96190.41
2023-02-15T18:30:23.861Z,96188.59
2023-02-15T18:32:51.519Z,96186.75
2023-02-15T18:35:22.987Z,96188.75
2023-02-15T18:37:52.612Z,96187.13
2023-02-15T18:40:21.134Z,96190.41
2023-02-15T18:42:49.089Z,96189.16
2023-02-15T18:45:15.977Z,96194.06
2023-02-15T18:47:42.665Z,96185.31
2023-02-15T18:50:09.507Z,96194.44
2023-02-15T18:52:40.342Z,96193.41
2023-02-15T18:55:17.558Z,96196.06
2023-02-15T18:57:45.902Z,96194.44
2023-02-15T19:00:20.656Z,96197.44
2023-02-15T19:02:47.339Z,96196.44
2023-02-15T19:05:16.191Z,96194.81
2023-02-15T19:07:45.362Z,96189.53
2023-02-15T19:10:24.224Z,96193.16
2023-02-15T19:12:54.088Z,96187.88
2023-02-15T19:15:26.244Z,96191.53
2023-02-15T19:17:56.206Z,96195.81
2023-02-15T19:20:28.534Z,96189.91
2023-02-15T19:22:56.100Z,96195.19
2023-02-15T19:25:25.298Z,96191.53
2023-02-15T19:27:52.388Z,96183.78
2023-02-15T19:30:21.969Z,96192.53
2023-02-15T19:32:48.705Z,96190.25
2023-02-15T19:35:22.632Z,96191.06
2023-02-15T19:37:53.571Z,96195.53
2023-02-15T19:40:25.977Z,96197.16
2023-02-15T19:42:52.793Z,96196.53
2023-02-15T19:45:21.504Z,96205.47
2023-02-15T19:47:51.837Z,96206.47
2023-02-15T19:50:19.553Z,96206.47
2023-02-15T19:52:46.459Z,96211.38
2023-02-15T19:55:26.542Z,96202.81
2023-02-15T19:57:56.867Z,96203.66
2023-02-15T20:00:27.795Z,96201.19
2023-02-15T20:02:56.717Z,96204.47
2023-02-15T20:05:30.435Z,96204.47
2023-02-15T20:07:59.462Z,96202.03
2023-02-15T20:10:32.657Z,96204.84
2023-02-15T20:13:01.438Z,96202.19
2023-02-15T20:15:34.431Z,96199.53
2023-02-15T20:18:03.699Z,96199.91
2023-02-15T20:20:35.998Z,96199.91
2023-02-15T20:23:02.784Z,96205.22
2023-02-15T20:25:34.783Z,96188.72
2023-02-15T20:28:04.143Z,96194.63
2023-02-15T20:30:41.087Z,96194.00
2023-02-15T20:33:11.237Z,96195.66
2023-02-15T20:35:40.101Z,96195.66
2023-02-15T20:38:08.898Z,96200.09
2023-02-15T20:40:35.685Z,96198.47
2023-02-15T20:43:02.769Z,96202.72
2023-02-15T20:45:31.220Z,96200.94
2023-02-15T20:47:58.609Z,96203.56
2023-02-15T20:50:27.333Z,96205.59
2023-02-15T20:52:55.041Z,96197.66
2023-02-15T20:55:29.849Z,96194.00
2023-02-15T20:57:59.949Z,96197.66
2023-02-15T21:00:31.251Z,96204.91
2023-02-15T21:02:59.121Z,96200.28
2023-02-15T21:05:31.342Z,96196.66
2023-02-15T21:07:58.055Z,96199.47
2023-02-15T21:10:26.615Z,96196.19
2023-02-15T21:12:57.079Z,96190.69
2023-02-15T21:15:37.556Z,96194.56
2023-02-15T21:18:06.500Z,96200.63
2023-02-15T21:20:33.625Z,96192.53
2023-02-15T21:23:02.903Z,96193.72
2023-02-15T21:25:39.283Z,96195.34
2023-02-15T21:28:07.534Z,96199.63
2023-02-15T21:30:36.634Z,96196.19
2023-02-15T21:33:05.709Z,96195.34
2023-02-15T21:35:35.110Z,96190.91
2023-02-15T21:38:04.021Z,96199.00
2023-02-15T21:40:34.449Z,96195.94
2023-02-15T21:43:19.600Z,96201.38
2023-02-15T21:46:05.390Z,96197.28
2023-02-15T21:48:34.893Z,96186.63
2023-02-15T21:51:20.469Z,96200.13
2023-02-15T21:53:49.514Z,96207.03
2023-02-15T21:56:20.332Z,96205.41
2023-02-15T21:58:47.145Z,96205.75
2023-02-15T22:01:27.024Z,96208.31
2023-02-15T22:03:54.898Z,96212.31
2023-02-15T22:06:21.684Z,96204.41
2023-02-15T22:08:50.707Z,96207.69
2023-02-15T22:11:22.504Z,96212.03
2023-02-15T22:13:49.256Z,96218.22
2023-02-15T22:16:20.537Z,96219.31
2023-02-15T22:18:49.609Z,96213.59
2023-02-15T22:21:19.453Z,96215.59
2023-02-15T22:23:47.243Z,96216.59
2023-02-15T22:26:24.348Z,96226.16
2023-02-15T22:28:50.970Z,96211.50
2023-02-15T22:31:20.051Z,96217.59
2023-02-15T22:33:49.707Z,96210.88
2023-02-15T22:36:29.846Z,96206.66
2023-02-15T22:38:58.904Z,96209.94
2023-02-15T22:41:28.041Z,96207.31
2023-02-15T22:43:54.729Z,96206.50
2023-02-15T22:46:22.678Z,96205.94
2023-02-15T22:48:51.661Z,96219.75
2023-02-15T22:51:26.609Z,96212.84
2023-02-15T22:53:56.052Z,96218.50
2023-02-15T22:56:46.643Z,96220.41
2023-02-15T22:59:34.152Z,96209.91
2023-02-15T23:02:03.416Z,96214.59
2023-02-15T23:04:30.219Z,96203.53
2023-02-15T23:06:59.451Z,96216.63
2023-02-15T23:09:28.801Z,96197.53
2023-02-15T23:11:58.401Z,96209.66
2023-02-15T23:14:32.737Z,96209.66
2023-02-15T23:17:00.813Z,96211.78
2023-02-15T23:19:30.750Z,96208.56
2023-02-15T23:21:57.665Z,96213.53
2023-02-15T23:24:26.836Z,96214.16
2023-02-15T23:26:53.465Z,96214.66
2023-02-15T23:29:28.433Z,96214.47
2023-02-15T23:31:55.147Z,96201.91
2023-02-15T23:34:26.434Z,96206.84
2023-02-15T23:36:52.926Z,96199.72
2023-02-15T23:39:39.851Z,96201.19
2023-02-15T23:42:10.814Z,96200.81
2023-02-15T23:44:37.476Z,96200.81
2023-02-15T23:47:04.195Z,96206.38
2023-02-15T23:49:30.867Z,96207.66
2023-02-15T23:51:57.726Z,96199.38
2023-02-15T23:54:25.825Z,96199.00
2023-02-15T23:56:57.733Z,96198.66
2023-02-15T23:59:27.869Z,96201.91
